createdAt,value
2022-09-14T00:01:03.100Z,14.47
2022-09-14T00:03:40.552Z,14.42
2022-09-14T00:06:14.235Z,14.42
2022-09-14T00:08:46.336Z,14.43
2022-09-14T00:11:21.396Z,14.43
2022-09-14T00:13:53.573Z,14.43
2022-09-14T00:16:27.830Z,14.42
2022-09-14T00:19:05.724Z,14.40
2022-09-14T00:21:42.609Z,14.39
2022-09-14T00:24:14.812Z,14.37
2022-09-14T00:26:48.274Z,14.38
2022-09-14T00:29:20.641Z,14.38
2022-09-14T00:31:54.716Z,14.38
2022-09-14T00:34:26.971Z,14.39
2022-09-14T00:37:02.475Z,14.36
2022-09-14T00:39:34.205Z,14.32
2022-09-14T00:42:09.465Z,14.30
2022-09-14T00:45:08.356Z,14.26
2022-09-14T00:47:40.338Z,14.22
2022-09-14T00:50:12.861Z,14.20
2022-09-14T00:52:54.698Z,14.17
2022-09-14T00:55:26.857Z,14.14
2022-09-14T00:57:58.709Z,14.16
2022-09-14T01:00:32.323Z,14.17
2022-09-14T01:03:05.844Z,14.17
2022-09-14T01:05:57.353Z,14.14
2022-09-14T01:08:51.211Z,14.14
2022-09-14T01:11:36.866Z,14.12
2022-09-14T01:14:18.781Z,14.10
2022-09-14T01:17:00.752Z,14.09
2022-09-14T01:19:44.335Z,14.10
2022-09-14T01:22:27.191Z,14.11
2022-09-14T01:25:10.524Z,14.09
2022-09-14T01:27:44.188Z,14.07
2022-09-14T01:30:26.212Z,14.08
2022-09-14T01:33:05.877Z,14.07
2022-09-14T01:35:43.800Z,14.03
2022-09-14T01:38:20.298Z,14.01
2022-09-14T01:40:57.192Z,14.00
2022-09-14T01:43:36.573Z,14.01
2022-09-14T01:46:12.588Z,13.98
2022-09-14T01:48:49.772Z,13.97
2022-09-14T01:51:30.628Z,13.97
2022-09-14T01:54:08.676Z,13.98
2022-09-14T01:56:45.843Z,13.99
2022-09-14T01:59:21.691Z,13.98
2022-09-14T02:02:01.559Z,13.99
2022-09-14T02:04:40.050Z,13.97
2022-09-14T02:07:12.425Z,13.97
2022-09-14T02:09:44.855Z,13.98
2022-09-14T02:12:19.126Z,13.98
2022-09-14T02:14:53.717Z,13.98
2022-09-14T02:17:26.077Z,13.97
2022-09-14T02:20:00.067Z,13.94
2022-09-14T02:22:34.737Z,13.91
2022-09-14T02:25:08.735Z,13.90
2022-09-14T02:27:40.543Z,13.88
2022-09-14T02:30:14.777Z,13.84
2022-09-14T02:32:58.085Z,13.80
2022-09-14T02:35:37.308Z,13.80
2022-09-14T02:38:16.768Z,13.76
2022-09-14T02:40:56.365Z,13.74
2022-09-14T02:43:39.647Z,13.71
2022-09-14T02:46:18.459Z,13.68
2022-09-14T02:48:58.084Z,13.66
2022-09-14T02:51:35.431Z,13.64
2022-09-14T02:54:13.985Z,13.62
2022-09-14T02:56:46.197Z,13.62
2022-09-14T02:59:19.491Z,13.59
2022-09-14T03:01:51.329Z,13.55
2022-09-14T03:04:24.793Z,13.49
2022-09-14T03:06:56.870Z,13.44
2022-09-14T03:09:28.654Z,13.40
2022-09-14T03:12:00.500Z,13.39
2022-09-14T03:14:33.152Z,13.38
2022-09-14T03:17:04.894Z,13.38
2022-09-14T03:19:36.692Z,13.39
2022-09-14T03:22:08.470Z,13.40
2022-09-14T03:24:42.591Z,13.39
2022-09-14T03:27:14.271Z,13.39
2022-09-14T03:29:47.735Z,13.40
2022-09-14T03:32:19.494Z,13.39
2022-09-14T03:34:53.215Z,13.38
2022-09-14T03:37:25.005Z,13.37
2022-09-14T03:39:56.779Z,13.34
2022-09-14T03:42:28.615Z,13.32
2022-09-14T03:45:01.236Z,13.30
2022-09-14T03:47:32.947Z,13.27
2022-09-14T03:50:11.824Z,13.21
2022-09-14T03:52:43.649Z,13.19
2022-09-14T03:55:15.512Z,13.17
2022-09-14T03:57:47.272Z,13.15
2022-09-14T04:00:27.785Z,13.12
2022-09-14T04:03:00.899Z,13.09
2022-09-14T04:05:32.791Z,13.06
2022-09-14T04:08:04.835Z,13.04
2022-09-14T04:10:39.133Z,13.02
2022-09-14T04:13:10.775Z,13.02
2022-09-14T04:15:42.563Z,13.04
2022-09-14T04:18:14.341Z,13.07
2022-09-14T04:20:48.658Z,13.09
2022-09-14T04:23:20.333Z,13.10
2022-09-14T04:25:52.668Z,13.09
2022-09-14T04:28:25.611Z,13.06
2022-09-14T04:31:05.092Z,13.04
2022-09-14T04:33:38.686Z,13.04
2022-09-14T04:36:13.584Z,13.09
2022-09-14T04:38:46.907Z,13.14
2022-09-14T04:41:22.182Z,13.18
2022-09-14T04:43:55.783Z,13.22
2022-09-14T04:46:29.909Z,13.24
2022-09-14T04:49:04.941Z,13.27
2022-09-14T04:51:39.388Z,13.31
2022-09-14T04:54:14.409Z,13.34
2022-09-14T04:56:53.191Z,13.32
2022-09-14T04:59:24.834Z,13.28
2022-09-14T05:01:57.481Z,13.26
2022-09-14T05:04:29.479Z,13.27
2022-09-14T05:07:07.612Z,13.31
2022-09-14T05:09:40.573Z,13.36
2022-09-14T05:12:12.546Z,13.43
2022-09-14T05:14:44.286Z,13.49
2022-09-14T05:17:16.077Z,13.56
2022-09-14T05:19:47.909Z,13.63
2022-09-14T05:22:22.698Z,13.69
2022-09-14T05:24:54.577Z,13.74
2022-09-14T05:27:26.402Z,13.85
2022-09-14T05:29:58.122Z,13.95
2022-09-14T05:32:29.812Z,14.05
2022-09-14T05:35:01.548Z,14.13
2022-09-14T05:37:35.009Z,14.15
2022-09-14T05:40:09.721Z,14.22
2022-09-14T05:42:42.326Z,14.27
2022-09-14T05:45:15.281Z,14.35
2022-09-14T05:47:48.204Z,14.45
2022-09-14T05:53:19.897Z,14.57
2022-09-14T05:55:59.828Z,14.62
2022-09-14T05:58:32.294Z,14.71
2022-09-14T06:01:09.368Z,14.81
2022-09-14T06:03:41.281Z,14.92
2022-09-14T06:06:15.068Z,15.05
2022-09-14T06:08:50.221Z,15.16
2022-09-14T06:11:24.788Z,15.25
2022-09-14T06:13:58.305Z,15.35
2022-09-14T06:16:30.760Z,15.46
2022-09-14T06:19:03.325Z,15.59
2022-09-14T06:21:36.477Z,15.69
2022-09-14T06:24:08.299Z,15.77
2022-09-14T06:26:40.063Z,15.80
2022-09-14T06:29:11.824Z,15.86
2022-09-14T06:31:43.499Z,15.90
2022-09-14T06:34:15.312Z,15.99
2022-09-14T06:36:46.975Z,16.07
2022-09-14T06:39:18.802Z,16.17
2022-09-14T06:41:51.978Z,16.28
2022-09-14T06:44:23.877Z,16.33
2022-09-14T06:46:55.546Z,16.36
2022-09-14T06:49:28.171Z,16.36
2022-09-14T06:52:00.911Z,16.42
2022-09-14T06:54:33.985Z,16.47
2022-09-14T06:57:07.045Z,16.51
2022-09-14T06:59:38.765Z,16.54
2022-09-14T07:02:15.138Z,16.53
2022-09-14T07:04:46.947Z,16.51
2022-09-14T07:07:19.378Z,16.55
2022-09-14T07:09:54.494Z,16.61
2022-09-14T07:12:26.214Z,16.70
2022-09-14T07:14:59.604Z,16.75
2022-09-14T07:17:31.407Z,16.78
2022-09-14T07:20:03.551Z,16.81
2022-09-14T07:22:36.946Z,16.85
2022-09-14T07:25:12.883Z,16.88
2022-09-14T07:27:44.671Z,16.92
2022-09-14T07:30:21.245Z,17.04
2022-09-14T07:32:52.988Z,17.14
2022-09-14T07:35:24.758Z,17.25
2022-09-14T07:37:56.557Z,17.40
2022-09-14T07:40:30.057Z,17.51
2022-09-14T07:43:02.089Z,17.54
2022-09-14T07:45:35.951Z,17.60
2022-09-14T07:48:08.179Z,17.72
2022-09-14T07:50:43.997Z,17.82
2022-09-14T07:53:15.852Z,17.87
2022-09-14T07:55:48.115Z,17.82
2022-09-14T07:58:19.838Z,17.80
2022-09-14T08:00:52.425Z,17.81
2022-09-14T08:03:25.376Z,17.84
2022-09-14T08:06:03.174Z,17.85
2022-09-14T08:08:37.102Z,17.91
2022-09-14T08:11:12.909Z,17.96
2022-09-14T08:13:46.842Z,17.99
2022-09-14T08:16:19.616Z,18.04
2022-09-14T08:18:56.909Z,18.09
2022-09-14T08:21:30.961Z,18.17
2022-09-14T08:24:04.368Z,18.31
2022-09-14T08:26:37.591Z,18.42
2022-09-14T08:29:09.652Z,18.55
2022-09-14T08:31:43.363Z,18.57
2022-09-14T08:34:48.191Z,18.55
2022-09-14T08:37:20.519Z,18.58
2022-09-14T08:39:53.418Z,18.66
2022-09-14T08:42:26.193Z,18.61
2022-09-14T08:45:01.986Z,18.58
2022-09-14T08:47:39.038Z,18.53
2022-09-14T08:50:18.534Z,18.54
2022-09-14T08:52:53.086Z,18.65
2022-09-14T08:55:36.591Z,18.78
2022-09-14T08:58:20.749Z,18.96
2022-09-14T09:00:56.409Z,19.12
2022-09-14T09:03:49.927Z,19.27
2022-09-14T09:06:30.408Z,19.40
2022-09-14T09:09:10.171Z,19.40
2022-09-14T09:11:46.477Z,19.32
2022-09-14T09:14:23.721Z,19.27
2022-09-14T09:16:58.235Z,19.23
2022-09-14T09:19:35.572Z,19.20
2022-09-14T09:22:13.599Z,19.29
2022-09-14T09:24:50.105Z,19.37
2022-09-14T09:27:22.082Z,19.43
2022-09-14T09:29:55.568Z,19.50
2022-09-14T09:32:28.709Z,19.57
2022-09-14T09:35:28.109Z,19.64
2022-09-14T09:37:59.969Z,19.67
2022-09-14T09:40:41.450Z,19.61
2022-09-14T09:43:21.319Z,19.49
2022-09-14T09:46:09.533Z,19.43
2022-09-14T09:48:48.487Z,19.58
2022-09-14T09:51:30.048Z,19.85
2022-09-14T09:54:08.690Z,20.11
2022-09-14T09:56:52.148Z,20.25
2022-09-14T09:59:36.424Z,20.28
2022-09-14T10:02:31.225Z,20.32
2022-09-14T10:05:07.172Z,20.33
2022-09-14T10:07:42.073Z,20.25
2022-09-14T10:10:16.140Z,20.17
2022-09-14T10:12:53.575Z,20.10
2022-09-14T10:15:26.988Z,20.03
2022-09-14T10:18:09.043Z,20.06
2022-09-14T10:20:44.266Z,20.12
2022-09-14T10:23:26.211Z,20.07
2022-09-14T10:26:20.328Z,20.01
2022-09-14T10:28:53.510Z,20.01
2022-09-14T10:31:32.334Z,20.06
2022-09-14T10:34:17.207Z,20.12
2022-09-14T10:36:56.713Z,20.24
2022-09-14T10:39:36.919Z,20.43
2022-09-14T10:42:17.794Z,20.64
2022-09-14T10:45:01.260Z,20.99
2022-09-14T10:48:00.444Z,21.29
2022-09-14T10:50:42.962Z,21.42
2022-09-14T10:53:31.419Z,21.51
2022-09-14T10:56:07.556Z,21.55
2022-09-14T10:58:58.818Z,21.66
2022-09-14T11:01:44.414Z,21.76
2022-09-14T11:04:27.938Z,21.86
2022-09-14T11:07:08.084Z,22.00
2022-09-14T11:09:49.795Z,22.10
2022-09-14T11:12:30.346Z,22.17
2022-09-14T11:15:09.677Z,22.26
2022-09-14T11:18:08.487Z,22.23
2022-09-14T11:21:05.052Z,22.14
2022-09-14T11:23:49.226Z,22.08
2022-09-14T11:26:31.486Z,22.05
2022-09-14T11:29:12.509Z,22.09
2022-09-14T11:32:10.161Z,22.05
2022-09-14T11:34:54.773Z,21.98
2022-09-14T11:37:37.473Z,21.90
2022-09-14T11:40:24.378Z,21.81
2022-09-14T11:43:06.015Z,21.80
2022-09-14T11:45:43.296Z,21.71
2022-09-14T11:48:41.877Z,21.67
2022-09-14T11:51:18.434Z,21.68
2022-09-14T11:53:50.950Z,21.62
2022-09-14T11:56:27.569Z,21.63
2022-09-14T11:59:03.484Z,21.58
2022-09-14T12:01:37.807Z,21.53
2022-09-14T12:04:19.423Z,21.58
2022-09-14T12:06:59.370Z,21.59
2022-09-14T12:09:54.956Z,21.67
2022-09-14T12:12:41.577Z,21.70
2022-09-14T12:15:20.228Z,21.67
2022-09-14T12:17:53.423Z,21.59
2022-09-14T12:20:41.485Z,21.59
2022-09-14T12:23:26.502Z,21.57
2022-09-14T12:26:02.156Z,21.53
2022-09-14T12:28:48.171Z,21.45
2022-09-14T12:31:58.075Z,21.44
2022-09-14T12:34:33.830Z,21.33
2022-09-14T12:37:37.104Z,21.25
2022-09-14T12:40:35.957Z,21.09
2022-09-14T12:43:47.325Z,21.07
2022-09-14T12:46:38.679Z,21.16
2022-09-14T12:49:39.273Z,21.21
2022-09-14T12:52:30.068Z,21.17
2022-09-14T12:55:21.337Z,21.18
2022-09-14T12:58:01.582Z,21.28
2022-09-14T13:00:48.099Z,21.33
2022-09-14T13:03:43.333Z,21.33
2022-09-14T13:06:15.903Z,21.30
2022-09-14T13:08:50.430Z,21.28
2022-09-14T13:11:29.882Z,21.22
2022-09-14T13:14:03.213Z,21.09
2022-09-14T13:16:42.616Z,21.08
2022-09-14T13:19:27.432Z,21.07
2022-09-14T13:22:00.690Z,21.06
2022-09-14T13:24:38.861Z,21.01
2022-09-14T13:27:22.709Z,20.94
2022-09-14T13:30:08.587Z,20.88
2022-09-14T13:32:44.860Z,20.76
2022-09-14T13:35:25.879Z,20.66
2022-09-14T13:37:56.331Z,20.58
2022-09-14T13:40:31.318Z,20.51
2022-09-14T13:43:03.679Z,20.52
2022-09-14T13:45:37.119Z,20.53
2022-09-14T13:48:09.315Z,20.46
2022-09-14T13:50:42.018Z,20.41
2022-09-14T13:53:42.090Z,20.38
2022-09-14T13:56:23.246Z,20.34
2022-09-14T13:59:18.954Z,20.34
2022-09-14T14:01:57.193Z,20.38
2022-09-14T14:04:36.082Z,20.45
2022-09-14T14:07:19.110Z,20.50
2022-09-14T14:09:54.785Z,20.59
2022-09-14T14:12:30.138Z,20.65
2022-09-14T14:15:03.677Z,20.70
2022-09-14T14:17:38.671Z,20.72
2022-09-14T14:20:35.346Z,20.71
2022-09-14T14:23:26.316Z,20.62
2022-09-14T14:26:07.577Z,20.46
2022-09-14T14:28:40.744Z,20.36
2022-09-14T14:31:18.496Z,20.30
2022-09-14T14:33:53.413Z,20.28
2022-09-14T14:36:25.148Z,20.24
2022-09-14T14:38:58.596Z,20.19
2022-09-14T14:41:30.318Z,20.13
2022-09-14T14:44:02.305Z,20.10
2022-09-14T14:46:34.295Z,20.03
2022-09-14T14:49:06.078Z,19.96
2022-09-14T14:51:39.654Z,19.91
2022-09-14T14:54:11.789Z,19.92
2022-09-14T14:56:44.149Z,19.95
2022-09-14T14:59:31.118Z,19.96
2022-09-14T15:02:03.132Z,19.98
2022-09-14T15:04:35.206Z,19.99
2022-09-14T15:07:06.995Z,19.99
2022-09-14T15:09:38.739Z,19.99
2022-09-14T15:12:10.939Z,20.01
2022-09-14T15:14:42.918Z,19.94
2022-09-14T15:17:15.489Z,19.89
2022-09-14T15:19:47.261Z,19.84
2022-09-14T15:22:19.112Z,19.79
2022-09-14T15:24:50.847Z,19.77
2022-09-14T15:27:22.630Z,19.73
2022-09-14T15:29:57.658Z,19.69
2022-09-14T15:32:29.391Z,19.65
2022-09-14T15:35:01.408Z,19.64
2022-09-14T15:37:39.876Z,19.62
2022-09-14T15:40:15.471Z,19.57
2022-09-14T15:42:47.207Z,19.53
2022-09-14T15:45:19.645Z,19.52
2022-09-14T15:47:51.390Z,19.50
2022-09-14T15:50:25.553Z,19.49
2022-09-14T15:53:02.418Z,19.47
2022-09-14T15:55:34.535Z,19.41
2022-09-14T15:58:06.418Z,19.34
2022-09-14T16:00:43.461Z,19.24
2022-09-14T16:03:15.337Z,19.11
2022-09-14T16:05:47.147Z,19.05
2022-09-14T16:08:19.199Z,18.98
2022-09-14T16:10:59.262Z,18.94
2022-09-14T16:13:31.357Z,18.92
2022-09-14T16:16:08.393Z,18.85
2022-09-14T16:18:41.093Z,18.79
2022-09-14T16:21:17.088Z,18.69
2022-09-14T16:23:51.224Z,18.65
2022-09-14T16:26:25.131Z,18.59
2022-09-14T16:28:57.381Z,18.53
2022-09-14T16:31:31.827Z,18.46
2022-09-14T16:34:06.167Z,18.36
2022-09-14T16:36:39.935Z,18.27
2022-09-14T16:39:14.258Z,18.19
2022-09-14T16:41:47.347Z,18.09
2022-09-14T16:44:25.781Z,18.01
2022-09-14T16:46:59.239Z,17.94
2022-09-14T16:49:31.191Z,17.88
2022-09-14T16:52:04.254Z,17.83
2022-09-14T16:54:36.220Z,17.79
2022-09-14T16:57:08.332Z,17.73
2022-09-14T16:59:40.459Z,17.67
2022-09-14T17:02:14.865Z,17.60
2022-09-14T17:04:46.974Z,17.56
2022-09-14T17:07:19.288Z,17.52
2022-09-14T17:09:52.121Z,17.48
2022-09-14T17:12:24.719Z,17.46
2022-09-14T17:14:56.970Z,17.45
2022-09-14T17:17:29.480Z,17.46
2022-09-14T17:20:01.763Z,17.45
2022-09-14T17:22:39.596Z,17.42
2022-09-14T17:25:16.810Z,17.40
2022-09-14T17:27:49.553Z,17.37
2022-09-14T17:30:23.855Z,17.31
2022-09-14T17:32:58.734Z,17.28
2022-09-14T17:35:30.958Z,17.26
2022-09-14T17:38:03.119Z,17.22
2022-09-14T17:40:35.314Z,17.21
2022-09-14T17:43:08.213Z,17.20
2022-09-14T17:45:40.602Z,17.19
2022-09-14T17:48:12.798Z,17.17
2022-09-14T17:50:44.956Z,17.14
2022-09-14T17:53:17.723Z,17.13
2022-09-14T17:55:50.145Z,17.11
2022-09-14T17:58:22.479Z,17.09
2022-09-14T18:01:06.492Z,17.06
2022-09-14T18:03:39.694Z,17.06
2022-09-14T18:06:13.886Z,17.05
2022-09-14T18:08:46.731Z,17.03
2022-09-14T18:11:19.900Z,17.01
2022-09-14T18:13:53.904Z,16.99
2022-09-14T18:16:27.517Z,16.95
2022-09-14T18:19:01.007Z,16.90
2022-09-14T18:21:33.346Z,16.86
2022-09-14T18:24:06.541Z,16.84
2022-09-14T18:26:39.358Z,16.84
2022-09-14T18:29:14.873Z,16.85
2022-09-14T18:31:47.387Z,16.84
2022-09-14T18:34:21.463Z,16.85
2022-09-14T18:36:54.889Z,16.84
2022-09-14T18:39:27.081Z,16.83
2022-09-14T18:41:59.199Z,16.81
2022-09-14T18:44:31.159Z,16.77
2022-09-14T18:47:04.041Z,16.76
2022-09-14T18:49:35.923Z,16.76
2022-09-14T18:52:07.854Z,16.76
2022-09-14T18:54:39.687Z,16.75
2022-09-14T18:57:11.652Z,16.74
2022-09-14T18:59:43.645Z,16.73
2022-09-14T19:02:15.874Z,16.72
2022-09-14T19:04:49.111Z,16.72
2022-09-14T19:07:20.991Z,16.69
2022-09-14T19:09:53.074Z,16.66
2022-09-14T19:12:25.329Z,16.64
2022-09-14T19:14:57.693Z,16.65
2022-09-14T19:17:29.735Z,16.63
2022-09-14T19:20:02.063Z,16.62
2022-09-14T19:22:34.162Z,16.61
2022-09-14T19:25:07.605Z,16.61
2022-09-14T19:27:39.492Z,16.59
2022-09-14T19:30:18.955Z,16.55
2022-09-14T19:32:50.912Z,16.53
2022-09-14T19:35:23.563Z,16.49
2022-09-14T19:37:55.780Z,16.48
2022-09-14T19:40:28.694Z,16.47
2022-09-14T19:43:00.598Z,16.47
2022-09-14T19:45:32.884Z,16.46
2022-09-14T19:48:05.214Z,16.44
2022-09-14T19:50:38.698Z,16.44
2022-09-14T19:53:10.478Z,16.43
2022-09-14T19:55:42.283Z,16.40
2022-09-14T19:58:14.017Z,16.37
2022-09-14T20:00:47.421Z,16.36
2022-09-14T20:03:19.527Z,16.36
2022-09-14T20:05:59.580Z,16.35
2022-09-14T20:08:32.304Z,16.34
2022-09-14T20:11:09.078Z,16.35
2022-09-14T20:13:41.551Z,16.35
2022-09-14T20:16:15.798Z,16.34
2022-09-14T20:18:48.839Z,16.32
2022-09-14T20:21:23.896Z,16.31
2022-09-14T20:24:19.296Z,16.30
2022-09-14T20:26:53.236Z,16.30
2022-09-14T20:29:26.180Z,16.29
2022-09-14T20:31:58.186Z,16.29
2022-09-14T20:34:30.321Z,16.28
2022-09-14T20:37:02.138Z,16.25
2022-09-14T20:39:36.057Z,16.23
2022-09-14T20:42:10.055Z,16.19
2022-09-14T20:44:41.969Z,16.16
2022-09-14T20:47:13.804Z,16.13
2022-09-14T20:49:45.647Z,16.09
2022-09-14T20:52:19.225Z,16.08
2022-09-14T20:54:50.983Z,16.07
2022-09-14T20:57:24.293Z,16.07
2022-09-14T20:59:57.741Z,16.07
2022-09-14T21:02:30.725Z,16.07
2022-09-14T21:05:02.544Z,16.06
2022-09-14T21:07:34.468Z,16.06
2022-09-14T21:10:10.385Z,16.07
2022-09-14T21:12:43.259Z,16.06
2022-09-14T21:15:15.860Z,16.05
2022-09-14T21:17:52.686Z,16.05
2022-09-14T21:20:25.780Z,16.05
2022-09-14T21:23:00.235Z,16.06
2022-09-14T21:25:35.815Z,16.03
2022-09-14T21:28:08.878Z,16.03
2022-09-14T21:30:41.039Z,16.04
2022-09-14T21:33:17.425Z,16.02
2022-09-14T21:35:50.140Z,16.00
2022-09-14T21:38:22.345Z,15.98
2022-09-14T21:40:55.095Z,15.96
2022-09-14T21:43:30.037Z,15.94
2022-09-14T21:46:02.462Z,15.94
2022-09-14T21:48:36.150Z,15.96
2022-09-14T21:51:15.827Z,15.93
2022-09-14T21:53:49.402Z,15.91
2022-09-14T21:56:23.507Z,15.90
2022-09-14T21:58:57.697Z,15.90
2022-09-14T22:01:30.946Z,15.89
2022-09-14T22:04:04.463Z,15.90
2022-09-14T22:06:36.994Z,15.91
2022-09-14T22:09:09.497Z,15.90
2022-09-14T22:11:49.639Z,15.86
2022-09-14T22:14:23.951Z,15.86
2022-09-14T22:16:56.545Z,15.87
2022-09-14T22:19:30.772Z,15.87
2022-09-14T22:22:03.857Z,15.88
2022-09-14T22:24:39.744Z,15.85
2022-09-14T22:27:13.246Z,15.85
2022-09-14T22:29:45.594Z,15.85
2022-09-14T22:32:20.918Z,15.85
2022-09-14T22:34:53.701Z,15.85
2022-09-14T22:37:25.785Z,15.85
2022-09-14T22:39:57.916Z,15.84
2022-09-14T22:42:31.584Z,15.82
2022-09-14T22:45:03.647Z,15.80
2022-09-14T22:47:35.792Z,15.77
2022-09-14T22:50:20.372Z,15.76
2022-09-14T22:52:52.362Z,15.75
2022-09-14T22:55:25.719Z,15.74
2022-09-14T22:57:57.828Z,15.75
2022-09-14T23:00:33.218Z,15.75
2022-09-14T23:03:05.339Z,15.74
2022-09-14T23:05:38.119Z,15.72
2022-09-14T23:08:11.959Z,15.72
2022-09-14T23:10:45.651Z,15.70
2022-09-14T23:13:18.196Z,15.67
2022-09-14T23:15:50.277Z,15.67
2022-09-14T23:18:22.866Z,15.67
2022-09-14T23:20:57.522Z,15.66
2022-09-14T23:23:29.610Z,15.66
2022-09-14T23:26:06.761Z,15.67
2022-09-14T23:28:39.474Z,15.66
2022-09-14T23:31:13.298Z,15.67
2022-09-14T23:33:45.719Z,15.68
2022-09-14T23:36:17.870Z,15.69
2022-09-14T23:38:50.029Z,15.65
2022-09-14T23:41:26.979Z,15.63
2022-09-14T23:43:58.862Z,15.63
2022-09-14T23:46:31.600Z,15.64
2022-09-14T23:49:03.514Z,15.64
2022-09-14T23:51:37.800Z,15.62
2022-09-14T23:54:10.703Z,15.60
2022-09-14T23:56:42.721Z,15.59
2022-09-14T23:59:16.322Z,15.58
